Time;durP1;ratioP1;P1;durP2;ratioP2;P2;SDS_P1;SDS_P2;PMS_P1;PMS_P2;Temp;Humidity;BMP_temperature;BMP_pressure;BME280_temperature;BME280_humidity;BME280_pressure;Samples;Min_cycle;Max_cycle;Signal;HPM_P1;HPM_P2
2022/01/25 00:15:57;;;;;;;22.07;20.70;;;;;;;;;;5092378;28;20189;-76
2022/01/25 00:26:40;;;;;;;20.33;18.97;;;;;;;;;;5091918;28;20575;-75
2022/01/25 00:29:10;;;;;;;25.07;23.57;;;;;;;;;;5091787;28;20198;-75
2022/01/25 00:31:38;;;;;;;24.83;23.43;;;;;;;;;;5091805;28;20672;-76
2022/01/25 00:34:08;;;;;;;24.20;22.80;;;;;;;;;;5092103;28;20672;-74
2022/01/25 00:36:35;;;;;;;23.97;22.57;;;;;;;;;;5094866;28;20259;-75
2022/01/25 00:39:04;;;;;;;22.30;20.80;;;;;;;;;;5095632;28;20619;-75
2022/01/25 00:41:31;;;;;;;24.00;22.20;;;;;;;;;;5095679;28;20288;-75
2022/01/25 00:44:00;;;;;;;18.70;17.50;;;;;;;;;;5095815;28;20193;-74
2022/01/25 00:46:26;;;;;;;21.03;19.33;;;;;;;;;;5095833;28;20193;-76
2022/01/25 00:48:56;;;;;;;19.37;18.10;;;;;;;;;;5095757;28;20286;-75
2022/01/25 00:51:57;;;;;;;18.67;17.47;;;;;;;;;;5095764;28;20189;-76
2022/01/25 00:54:29;;;;;;;20.23;18.83;;;;;;;;;;5095671;28;20206;-75
2022/01/25 00:56:57;;;;;;;20.60;19.03;;;;;;;;;;5095619;28;20239;-76
2022/01/25 00:59:25;;;;;;;21.80;20.20;;;;;;;;;;5095370;28;20229;-75
2022/01/25 01:01:54;;;;;;;21.90;20.10;;;;;;;;;;5095219;28;20641;-75
2022/01/25 01:04:21;;;;;;;23.10;21.60;;;;;;;;;;5095509;28;20660;-76
2022/01/25 01:06:48;;;;;;;19.67;18.37;;;;;;;;;;5095218;28;20239;-75
2022/01/25 01:09:15;;;;;;;21.53;19.83;;;;;;;;;;5095128;28;20660;-75
2022/01/25 01:11:50;;;;;;;21.33;19.83;;;;;;;;;;5094901;28;20233;-76
2022/01/25 01:14:22;;;;;;;20.93;19.53;;;;;;;;;;5095027;28;20276;-75
2022/01/25 01:17:10;;;;;;;20.53;19.13;;;;;;;;;;5095043;28;20190;-76
2022/01/25 01:30:46;;;;;;;24.60;23.30;;;;;;;;;;5095107;28;20270;-75
2022/01/25 01:44:27;;;;;;;22.97;21.77;;;;;;;;;;5080942;28;20194;-75
2022/01/25 01:47:04;;;;;;;23.60;22.30;;;;;;;;;;5094069;28;20664;-76
2022/01/25 01:49:38;;;;;;;23.13;21.80;;;;;;;;;;5094327;28;20190;-75
2022/01/25 01:52:05;;;;;;;24.53;22.40;;;;;;;;;;5094607;28;20194;-76
2022/01/25 01:54:32;;;;;;;23.10;21.80;;;;;;;;;;5094240;28;20194;-75
2022/01/25 01:56:59;;;;;;;24.97;23.67;;;;;;;;;;5094304;28;20189;-75
2022/01/25 01:59:27;;;;;;;20.50;19.40;;;;;;;;;;5094000;28;20707;-75
2022/01/25 02:01:53;;;;;;;20.43;19.33;;;;;;;;;;5094030;28;20254;-76
2022/01/25 02:04:20;;;;;;;20.00;18.80;;;;;;;;;;5094096;28;20212;-75
2022/01/25 02:06:47;;;;;;;20.03;19.03;;;;;;;;;;5093944;28;20236;-76
2022/01/25 02:09:14;;;;;;;17.90;16.80;;;;;;;;;;5094186;28;20201;-75
2022/01/25 02:11:41;;;;;;;20.10;18.80;;;;;;;;;;5094182;28;20197;-75
2022/01/25 02:14:09;;;;;;;21.10;20.00;;;;;;;;;;5094071;28;20198;-75
2022/01/25 02:16:55;;;;;;;20.50;19.17;;;;;;;;;;5093851;28;20201;-75
2022/01/25 02:22:33;;;;;;;20.30;19.30;;;;;;;;;;5094007;28;20185;-75
2022/01/25 02:25:03;;;;;;;19.13;18.13;;;;;;;;;;5093625;28;20194;-76
2022/01/25 02:27:30;;;;;;;23.03;21.83;;;;;;;;;;5093845;28;20665;-76
2022/01/25 02:29:56;;;;;;;22.23;21.23;;;;;;;;;;5093804;28;20225;-75
2022/01/25 02:32:23;;;;;;;21.17;20.20;;;;;;;;;;5093761;28;20221;-75
2022/01/25 02:34:50;;;;;;;18.70;17.70;;;;;;;;;;5093481;28;20668;-76
2022/01/25 02:37:19;;;;;;;19.50;18.50;;;;;;;;;;5093089;28;20201;-75
2022/01/25 02:39:46;;;;;;;19.60;18.50;;;;;;;;;;5093307;28;20194;-76
2022/01/25 02:42:13;;;;;;;20.13;19.23;;;;;;;;;;5093339;28;20254;-75
2022/01/25 02:44:42;;;;;;;21.70;20.70;;;;;;;;;;5093787;28;20632;-75
2022/01/25 02:49:52;;;;;;;21.30;20.30;;;;;;;;;;5093851;28;20194;-76
2022/01/25 02:52:21;;;;;;;22.50;21.50;;;;;;;;;;5093192;28;20202;-75
2022/01/25 02:54:47;;;;;;;20.90;20.00;;;;;;;;;;5093319;28;20232;-75
2022/01/25 02:57:14;;;;;;;20.37;19.33;;;;;;;;;;5092836;28;20284;-75
2022/01/25 02:59:41;;;;;;;21.33;20.33;;;;;;;;;;5092426;28;20309;-76
2022/01/25 03:02:08;;;;;;;21.57;20.57;;;;;;;;;;5093221;28;20537;-74
2022/01/25 03:04:37;;;;;;;21.53;20.63;;;;;;;;;;5092901;28;20193;-75
2022/01/25 03:07:05;;;;;;;22.87;21.87;;;;;;;;;;5092876;28;20190;-74
2022/01/25 03:09:33;;;;;;;22.50;21.50;;;;;;;;;;5093012;28;20225;-75
2022/01/25 03:12:02;;;;;;;22.97;21.97;;;;;;;;;;5092996;28;20238;-75
2022/01/25 03:14:32;;;;;;;23.30;21.77;;;;;;;;;;5092654;28;20194;-75
2022/01/25 03:17:11;;;;;;;20.57;19.67;;;;;;;;;;5093738;28;20226;-75
2022/01/25 03:22:43;;;;;;;23.17;22.07;;;;;;;;;;5092201;28;20200;-74
2022/01/25 03:25:12;;;;;;;21.50;20.60;;;;;;;;;;5093071;28;20277;-75
2022/01/25 03:27:38;;;;;;;20.87;19.87;;;;;;;;;;5092403;28;20229;-75
2022/01/25 03:30:06;;;;;;;22.63;21.63;;;;;;;;;;5092422;28;20198;-76
2022/01/25 03:32:32;;;;;;;24.73;23.50;;;;;;;;;;5092389;28;20244;-75
2022/01/25 03:34:59;;;;;;;22.67;21.37;;;;;;;;;;5092714;28;20225;-75
2022/01/25 03:37:26;;;;;;;19.37;18.47;;;;;;;;;;5092629;28;20194;-75
2022/01/25 03:39:52;;;;;;;22.37;20.60;;;;;;;;;;5092386;28;20247;-75
2022/01/25 03:42:21;;;;;;;21.80;20.80;;;;;;;;;;5092834;28;20672;-75
2022/01/25 03:44:49;;;;;;;20.57;19.67;;;;;;;;;;5092293;28;20732;-75
2022/01/25 03:47:19;;;;;;;20.27;19.27;;;;;;;;;;5092227;28;20689;-75
2022/01/25 03:49:49;;;;;;;20.50;19.63;;;;;;;;;;5092593;28;20272;-75
2022/01/25 03:52:19;;;;;;;21.40;20.30;;;;;;;;;;5092487;28;20197;-75
2022/01/25 03:54:48;;;;;;;21.10;20.20;;;;;;;;;;5092049;28;20617;-74
2022/01/25 03:57:14;;;;;;;19.00;18.20;;;;;;;;;;5092444;28;20209;-75
2022/01/25 03:59:43;;;;;;;17.53;16.73;;;;;;;;;;5092105;28;20317;-74
2022/01/25 04:02:09;;;;;;;21.00;20.00;;;;;;;;;;5092189;28;20247;-75
2022/01/25 04:04:36;;;;;;;20.30;19.40;;;;;;;;;;5092366;28;20194;-75
2022/01/25 04:07:08;;;;;;;21.07;20.00;;;;;;;;;;5092022;28;20244;-75
2022/01/25 04:09:35;;;;;;;22.33;21.23;;;;;;;;;;5092302;28;20214;-75
2022/01/25 04:12:02;;;;;;;20.63;19.53;;;;;;;;;;5096116;28;20228;-74
2022/01/25 04:14:29;;;;;;;22.90;21.30;;;;;;;;;;5096530;28;20198;-74
2022/01/25 04:17:01;;;;;;;20.57;19.70;;;;;;;;;;5096365;28;20193;-75
2022/01/25 04:19:35;;;;;;;22.23;20.87;;;;;;;;;;5096097;28;20194;-75
2022/01/25 04:25:10;;;;;;;23.90;22.90;;;;;;;;;;5013995;28;20188;-74
2022/01/25 04:27:37;;;;;;;23.83;22.30;;;;;;;;;;5013863;28;20283;-74
2022/01/25 04:30:05;;;;;;;20.20;19.40;;;;;;;;;;5055246;28;20276;-75
2022/01/25 04:32:41;;;;;;;19.90;18.80;;;;;;;;;;5096130;28;20281;-75
2022/01/25 04:35:12;;;;;;;21.47;20.57;;;;;;;;;;5095780;28;20185;-74
2022/01/25 04:49:00;;;;;;;20.13;19.03;;;;;;;;;;5095458;28;20255;-75
2022/01/25 04:51:45;;;;;;;20.60;19.60;;;;;;;;;;5095740;28;20273;-74
2022/01/25 04:54:18;;;;;;;21.90;19.87;;;;;;;;;;5095790;28;20574;-75
2022/01/25 04:56:53;;;;;;;18.90;18.00;;;;;;;;;;5095341;28;20637;-74
2022/01/25 04:59:26;;;;;;;22.07;20.93;;;;;;;;;;5095264;28;20220;-75
2022/01/25 05:01:59;;;;;;;21.33;19.90;;;;;;;;;;5095257;28;20243;-75
2022/01/25 05:04:31;;;;;;;19.87;18.97;;;;;;;;;;5096034;28;20282;-74
2022/01/25 05:07:07;;;;;;;19.63;18.73;;;;;;;;;;5095225;28;20190;-75
2022/01/25 05:09:35;;;;;;;21.87;20.63;;;;;;;;;;5095381;28;20295;-74
2022/01/25 05:12:04;;;;;;;18.27;17.47;;;;;;;;;;5095010;28;20225;-74
2022/01/25 05:14:34;;;;;;;22.43;20.40;;;;;;;;;;5095880;28;20198;-75
2022/01/25 05:17:04;;;;;;;23.73;22.30;;;;;;;;;;5095181;28;20292;-75
2022/01/25 05:22:22;;;;;;;20.17;19.27;;;;;;;;;;5094391;28;20212;-74
2022/01/25 05:24:49;;;;;;;24.03;22.80;;;;;;;;;;5095131;28;20200;-74
2022/01/25 05:27:17;;;;;;;26.03;24.23;;;;;;;;;;5094732;28;20185;-75
2022/01/25 05:29:43;;;;;;;24.63;23.23;;;;;;;;;;5095278;28;20736;-75
2022/01/25 05:32:10;;;;;;;22.23;21.13;;;;;;;;;;5094831;28;20233;-74
2022/01/25 05:34:38;;;;;;;24.53;23.23;;;;;;;;;;5094645;28;20194;-74
2022/01/25 05:37:07;;;;;;;23.13;21.80;;;;;;;;;;5094534;28;20194;-75
2022/01/25 05:39:35;;;;;;;21.50;20.47;;;;;;;;;;5094536;28;20201;-74
2022/01/25 05:42:17;;;;;;;24.20;22.47;;;;;;;;;;5094950;28;20225;-74
2022/01/25 05:44:56;;;;;;;25.57;23.73;;;;;;;;;;5094463;28;20186;-74
2022/01/25 05:47:26;;;;;;;21.83;20.83;;;;;;;;;;5094331;28;20181;-75
2022/01/25 05:49:54;;;;;;;26.77;25.30;;;;;;;;;;5094350;28;20217;-75
2022/01/25 05:52:21;;;;;;;21.37;20.37;;;;;;;;;;5094236;28;20664;-75
2022/01/25 05:54:48;;;;;;;24.13;22.63;;;;;;;;;;5094218;28;20255;-74
2022/01/25 05:57:15;;;;;;;22.27;20.97;;;;;;;;;;5094393;28;20225;-75
2022/01/25 05:59:44;;;;;;;22.37;21.27;;;;;;;;;;5093963;28;20711;-74
2022/01/25 06:02:10;;;;;;;24.47;22.60;;;;;;;;;;5094664;28;20198;-74
2022/01/25 06:04:37;;;;;;;22.13;21.07;;;;;;;;;;5094036;28;20241;-74
2022/01/25 06:07:06;;;;;;;24.73;23.37;;;;;;;;;;5094307;28;20226;-74
2022/01/25 06:09:32;;;;;;;24.40;22.93;;;;;;;;;;5093894;28;20236;-74
2022/01/25 06:11:59;;;;;;;23.60;22.30;;;;;;;;;;5094165;28;20280;-74
2022/01/25 06:14:26;;;;;;;24.87;23.33;;;;;;;;;;5094182;28;20193;-74
2022/01/25 06:16:52;;;;;;;23.13;21.83;;;;;;;;;;5093775;28;20198;-74
2022/01/25 06:19:19;;;;;;;22.63;21.53;;;;;;;;;;5094869;28;20225;-73
2022/01/25 06:21:46;;;;;;;22.73;21.07;;;;;;;;;;5094017;28;20251;-73
2022/01/25 06:24:14;;;;;;;21.57;20.47;;;;;;;;;;5093581;28;20197;-74
2022/01/25 06:26:41;;;;;;;22.87;21.57;;;;;;;;;;5093916;28;20193;-74
2022/01/25 06:29:07;;;;;;;23.13;22.03;;;;;;;;;;5093741;28;20267;-74
2022/01/25 06:31:34;;;;;;;23.57;22.13;;;;;;;;;;5093547;28;20255;-74
2022/01/25 06:34:01;;;;;;;28.30;25.67;;;;;;;;;;5092589;28;20243;-74
2022/01/25 06:36:28;;;;;;;23.60;22.50;;;;;;;;;;5093725;28;20189;-74
2022/01/25 06:38:54;;;;;;;25.40;24.13;;;;;;;;;;5093356;28;20654;-74
2022/01/25 06:41:22;;;;;;;26.00;24.57;;;;;;;;;;5093525;28;20190;-74
2022/01/25 06:43:49;;;;;;;25.27;23.93;;;;;;;;;;5093608;28;20194;-74
2022/01/25 06:46:16;;;;;;;30.57;28.80;;;;;;;;;;5093468;28;20221;-74
2022/01/25 06:48:43;;;;;;;24.73;23.53;;;;;;;;;;5093073;28;20229;-74
2022/01/25 06:51:09;;;;;;;23.97;22.77;;;;;;;;;;5093763;28;20190;-75
2022/01/25 06:53:36;;;;;;;24.23;23.03;;;;;;;;;;5093160;28;20204;-74
2022/01/25 06:56:05;;;;;;;21.50;20.40;;;;;;;;;;5092980;28;20194;-74
2022/01/25 06:58:34;;;;;;;23.53;22.17;;;;;;;;;;5093085;28;20216;-74
2022/01/25 07:01:06;;;;;;;21.67;20.60;;;;;;;;;;5092985;28;20652;-74
2022/01/25 07:03:33;;;;;;;20.17;18.97;;;;;;;;;;5093392;28;20247;-74
2022/01/25 07:06:00;;;;;;;25.00;23.17;;;;;;;;;;5093186;28;20576;-74
2022/01/25 07:08:27;;;;;;;21.20;20.20;;;;;;;;;;5092736;28;20232;-75
2022/01/25 07:10:54;;;;;;;21.43;20.37;;;;;;;;;;5092746;28;20197;-74
2022/01/25 07:13:20;;;;;;;20.67;19.67;;;;;;;;;;5092749;28;20209;-74
2022/01/25 07:15:49;;;;;;;25.13;23.37;;;;;;;;;;5092986;28;20225;-74
2022/01/25 07:18:16;;;;;;;21.97;20.87;;;;;;;;;;5092683;28;20202;-74
2022/01/25 07:20:42;;;;;;;24.20;22.73;;;;;;;;;;5092858;28;20201;-74
2022/01/25 07:23:09;;;;;;;25.67;23.60;;;;;;;;;;5092857;28;20726;-75
2022/01/25 07:25:38;;;;;;;23.10;21.80;;;;;;;;;;5092596;28;20198;-75
2022/01/25 07:28:04;;;;;;;21.43;20.37;;;;;;;;;;5092801;28;20194;-74
2022/01/25 07:30:31;;;;;;;21.97;20.77;;;;;;;;;;5092487;28;20265;-75
2022/01/25 07:33:05;;;;;;;23.67;22.13;;;;;;;;;;5092797;28;20245;-75
2022/01/25 07:35:32;;;;;;;22.00;20.80;;;;;;;;;;5092816;28;20190;-75
2022/01/25 07:37:58;;;;;;;21.20;20.07;;;;;;;;;;5092755;28;20580;-75
2022/01/25 07:40:25;;;;;;;24.00;22.80;;;;;;;;;;5092724;28;20198;-75
2022/01/25 07:42:52;;;;;;;26.57;24.57;;;;;;;;;;5093202;28;20288;-74
2022/01/25 07:45:19;;;;;;;24.17;22.47;;;;;;;;;;5092592;28;20240;-75
2022/01/25 07:47:45;;;;;;;28.80;26.17;;;;;;;;;;5094105;28;20233;-75
2022/01/25 07:50:14;;;;;;;26.27;24.03;;;;;;;;;;5093715;28;20233;-75
2022/01/25 07:52:41;;;;;;;25.70;23.97;;;;;;;;;;5093231;28;20204;-75
2022/01/25 07:55:08;;;;;;;30.73;28.37;;;;;;;;;;5093080;28;20276;-75
2022/01/25 07:57:35;;;;;;;24.87;22.73;;;;;;;;;;5092848;28;20229;-76
2022/01/25 08:00:02;;;;;;;24.43;22.77;;;;;;;;;;5092329;28;20233;-76
2022/01/25 08:02:28;;;;;;;22.53;21.20;;;;;;;;;;5092409;28;20194;-75
2022/01/25 08:04:55;;;;;;;25.07;22.70;;;;;;;;;;5092677;28;20201;-75
2022/01/25 08:07:23;;;;;;;24.67;22.70;;;;;;;;;;5092471;28;20198;-75
2022/01/25 08:09:50;;;;;;;30.57;26.90;;;;;;;;;;5092301;28;20695;-75
2022/01/25 08:12:16;;;;;;;24.70;22.23;;;;;;;;;;5092331;28;20197;-75
2022/01/25 08:14:44;;;;;;;23.23;21.73;;;;;;;;;;5092502;28;20247;-75
2022/01/25 08:17:11;;;;;;;22.60;21.10;;;;;;;;;;5092385;28;20198;-76
2022/01/25 08:19:38;;;;;;;22.20;20.90;;;;;;;;;;5092582;28;20250;-75
2022/01/25 08:22:04;;;;;;;22.37;20.87;;;;;;;;;;5092578;28;20641;-75
2022/01/25 08:24:32;;;;;;;24.13;22.53;;;;;;;;;;5092840;28;20197;-75
2022/01/25 08:26:59;;;;;;;23.97;22.33;;;;;;;;;;5092773;28;20194;-75
2022/01/25 08:29:26;;;;;;;23.13;21.63;;;;;;;;;;5093421;28;20768;-75
2022/01/25 08:31:53;;;;;;;24.00;22.30;;;;;;;;;;5093456;28;20222;-76
2022/01/25 08:34:19;;;;;;;21.83;20.33;;;;;;;;;;5093571;28;20198;-76
2022/01/25 08:36:46;;;;;;;22.83;21.33;;;;;;;;;;5092587;28;20201;-75
2022/01/25 08:39:13;;;;;;;25.23;23.43;;;;;;;;;;5092799;28;20205;-75
2022/01/25 08:41:41;;;;;;;24.43;22.83;;;;;;;;;;5092667;28;20190;-75
2022/01/25 08:44:08;;;;;;;26.00;23.70;;;;;;;;;;5092237;28;20190;-76
2022/01/25 08:46:35;;;;;;;25.83;23.83;;;;;;;;;;5092078;28;20194;-75
2022/01/25 08:49:01;;;;;;;22.30;20.80;;;;;;;;;;5092686;28;20252;-75
2022/01/25 08:51:28;;;;;;;23.60;22.00;;;;;;;;;;5091616;28;20729;-75
2022/01/25 08:53:55;;;;;;;25.40;23.50;;;;;;;;;;5091998;28;20190;-75
2022/01/25 08:56:22;;;;;;;25.23;23.37;;;;;;;;;;5093165;28;20228;-75
2022/01/25 08:58:50;;;;;;;25.07;23.43;;;;;;;;;;5095200;28;20650;-74
2022/01/25 09:01:16;;;;;;;26.80;24.50;;;;;;;;;;5095712;28;20190;-75
2022/01/25 09:03:43;;;;;;;25.00;23.60;;;;;;;;;;5096174;28;20194;-76
2022/01/25 09:06:10;;;;;;;29.83;27.27;;;;;;;;;;5095497;28;20230;-75
2022/01/25 09:08:37;;;;;;;27.23;24.47;;;;;;;;;;5095668;28;20231;-74
2022/01/25 09:11:05;;;;;;;24.33;22.43;;;;;;;;;;5095308;28;20299;-74
2022/01/25 09:13:32;;;;;;;22.00;20.50;;;;;;;;;;5095335;28;20262;-74
2022/01/25 09:16:00;;;;;;;26.60;24.63;;;;;;;;;;5094919;28;20193;-75
2022/01/25 09:18:26;;;;;;;28.60;26.03;;;;;;;;;;5095269;28;20280;-74
2022/01/25 09:20:54;;;;;;;25.27;23.47;;;;;;;;;;5095139;28;20194;-74
2022/01/25 09:23:22;;;;;;;28.00;25.23;;;;;;;;;;5094876;28;20189;-74
2022/01/25 09:25:49;;;;;;;27.73;25.50;;;;;;;;;;5094827;28;20237;-75
2022/01/25 09:28:16;;;;;;;28.33;26.03;;;;;;;;;;5095017;28;20194;-74
2022/01/25 09:30:43;;;;;;;29.03;25.93;;;;;;;;;;5094989;28;20225;-74
2022/01/25 09:33:11;;;;;;;31.03;27.83;;;;;;;;;;5094959;28;20251;-74
2022/01/25 09:35:38;;;;;;;29.27;26.37;;;;;;;;;;5094947;28;20247;-74
2022/01/25 09:38:05;;;;;;;27.33;24.77;;;;;;;;;;5094606;28;20198;-74
2022/01/25 09:40:32;;;;;;;27.93;25.20;;;;;;;;;;5094877;28;20197;-74
2022/01/25 09:42:59;;;;;;;28.13;25.80;;;;;;;;;;5094804;28;20221;-74
2022/01/25 09:45:26;;;;;;;34.37;30.93;;;;;;;;;;5094768;28;20198;-74
2022/01/25 09:47:53;;;;;;;29.93;26.93;;;;;;;;;;5094728;28;20200;-74
2022/01/25 09:50:22;;;;;;;25.67;24.00;;;;;;;;;;5094546;28;20282;-75
2022/01/25 09:52:49;;;;;;;28.50;26.30;;;;;;;;;;5094314;28;20194;-74
2022/01/25 09:55:17;;;;;;;32.57;28.60;;;;;;;;;;5094281;28;20697;-74
2022/01/25 09:57:43;;;;;;;31.00;28.30;;;;;;;;;;5094131;28;20277;-74
2022/01/25 10:00:12;;;;;;;24.97;23.37;;;;;;;;;;5094019;28;20229;-74
2022/01/25 10:02:44;;;;;;;24.17;22.73;;;;;;;;;;5094386;28;20263;-73
2022/01/25 10:05:27;;;;;;;27.53;25.37;;;;;;;;;;5094424;28;20218;-74
2022/01/25 10:07:58;;;;;;;27.13;25.13;;;;;;;;;;5094193;28;20186;-74
2022/01/25 10:10:25;;;;;;;28.97;26.53;;;;;;;;;;5093913;28;20278;-74
2022/01/25 10:12:52;;;;;;;28.60;26.23;;;;;;;;;;5094179;28;20248;-74
2022/01/25 10:15:19;;;;;;;25.33;23.73;;;;;;;;;;5093874;28;20679;-74
2022/01/25 10:17:45;;;;;;;24.60;22.90;;;;;;;;;;5094068;28;20197;-74
2022/01/25 10:20:27;;;;;;;27.23;25.03;;;;;;;;;;5094070;28;20276;-74
2022/01/25 10:22:59;;;;;;;28.83;26.30;;;;;;;;;;5092204;28;20193;-73
2022/01/25 10:25:29;;;;;;;26.20;24.30;;;;;;;;;;5094055;28;20190;-74
2022/01/25 10:28:03;;;;;;;30.97;27.00;;;;;;;;;;5093533;28;20674;-74
2022/01/25 10:30:36;;;;;;;28.07;25.83;;;;;;;;;;5093514;28;20214;-74
2022/01/25 10:33:03;;;;;;;28.90;26.77;;;;;;;;;;5093496;28;20186;-74
2022/01/25 10:35:30;;;;;;;23.90;22.37;;;;;;;;;;5093498;28;20205;-74
2022/01/25 10:37:59;;;;;;;26.07;24.27;;;;;;;;;;5093768;28;20263;-74
2022/01/25 10:40:36;;;;;;;28.10;25.53;;;;;;;;;;5093342;28;20243;-73
2022/01/25 10:43:04;;;;;;;26.23;24.27;;;;;;;;;;5093652;28;20200;-74
2022/01/25 10:45:31;;;;;;;24.57;23.07;;;;;;;;;;5093288;28;20228;-74
2022/01/25 10:47:58;;;;;;;30.77;28.23;;;;;;;;;;5093689;28;20233;-74
2022/01/25 10:50:25;;;;;;;30.40;27.50;;;;;;;;;;5093359;28;20222;-74
2022/01/25 10:53:06;;;;;;;32.33;26.93;;;;;;;;;;5093467;28;20225;-74
2022/01/25 10:55:42;;;;;;;27.43;24.90;;;;;;;;;;5093376;28;20194;-74
2022/01/25 10:58:09;;;;;;;30.07;27.33;;;;;;;;;;5093470;28;20640;-73
2022/01/25 11:00:37;;;;;;;26.00;24.23;;;;;;;;;;5092784;28;20714;-74
2022/01/25 11:03:04;;;;;;;28.37;25.77;;;;;;;;;;5093348;28;20198;-74
2022/01/25 11:05:33;;;;;;;31.53;28.27;;;;;;;;;;5093152;28;20193;-74
2022/01/25 11:08:11;;;;;;;26.87;24.83;;;;;;;;;;5093137;28;20745;-74
2022/01/25 11:10:42;;;;;;;25.50;23.80;;;;;;;;;;5092791;28;20215;-74
2022/01/25 11:13:22;;;;;;;27.53;25.47;;;;;;;;;;5093157;28;20689;-74
2022/01/25 11:15:49;;;;;;;28.40;26.00;;;;;;;;;;5093059;28;20213;-74
2022/01/25 11:18:16;;;;;;;28.80;26.47;;;;;;;;;;5092708;28;20198;-74
2022/01/25 11:20:43;;;;;;;25.60;23.33;;;;;;;;;;5092623;28;20255;-74
2022/01/25 11:23:12;;;;;;;29.03;26.40;;;;;;;;;;5092601;28;20190;-74
2022/01/25 11:25:40;;;;;;;26.93;24.93;;;;;;;;;;5092869;28;20198;-74
2022/01/25 11:28:06;;;;;;;27.50;24.87;;;;;;;;;;5092813;28;20198;-74
2022/01/25 11:30:33;;;;;;;23.73;22.33;;;;;;;;;;5093034;28;20772;-74
2022/01/25 11:33:00;;;;;;;28.63;26.17;;;;;;;;;;5093184;28;20686;-75
2022/01/25 11:35:28;;;;;;;26.20;24.47;;;;;;;;;;5092435;28;20232;-74
2022/01/25 11:37:56;;;;;;;30.83;28.03;;;;;;;;;;5092982;28;20647;-74
2022/01/25 11:40:29;;;;;;;30.20;27.40;;;;;;;;;;5092638;28;20194;-75
2022/01/25 11:42:57;;;;;;;28.33;25.70;;;;;;;;;;5092748;28;20289;-74
2022/01/25 11:45:25;;;;;;;28.10;25.67;;;;;;;;;;5092648;28;20202;-74
2022/01/25 11:47:53;;;;;;;29.33;26.80;;;;;;;;;;5092888;28;20209;-74
2022/01/25 11:50:20;;;;;;;29.83;26.93;;;;;;;;;;5092124;28;20229;-74
2022/01/25 11:52:48;;;;;;;27.07;25.20;;;;;;;;;;5092735;28;20190;-74
2022/01/25 11:55:22;;;;;;;33.20;29.73;;;;;;;;;;5092472;28;20220;-74
2022/01/25 11:57:53;;;;;;;30.70;28.20;;;;;;;;;;5092481;28;20263;-73
2022/01/25 12:00:21;;;;;;;29.80;27.13;;;;;;;;;;5092213;28;20230;-74
2022/01/25 12:02:49;;;;;;;30.37;27.70;;;;;;;;;;5092404;28;20193;-74
2022/01/25 12:05:18;;;;;;;31.43;28.13;;;;;;;;;;5092076;28;20236;-75
2022/01/25 12:07:59;;;;;;;26.80;24.87;;;;;;;;;;5092361;28;20277;-74
2022/01/25 12:10:35;;;;;;;30.27;27.93;;;;;;;;;;5091820;28;20270;-74
2022/01/25 12:13:14;;;;;;;28.67;26.83;;;;;;;;;;5092234;28;20223;-74
2022/01/25 12:15:41;;;;;;;28.37;26.13;;;;;;;;;;5093088;28;20219;-74
2022/01/25 12:18:09;;;;;;;28.53;26.00;;;;;;;;;;5091978;28;20200;-74
2022/01/25 12:20:47;;;;;;;28.27;25.90;;;;;;;;;;5092253;28;20198;-74
2022/01/25 12:23:19;;;;;;;29.67;27.30;;;;;;;;;;5092009;28;20185;-74
2022/01/25 12:25:51;;;;;;;33.57;30.27;;;;;;;;;;5092285;28;20182;-74
2022/01/25 12:28:27;;;;;;;33.17;29.77;;;;;;;;;;5092224;28;20204;-74
2022/01/25 12:30:54;;;;;;;24.83;23.43;;;;;;;;;;5092558;28;20729;-74
2022/01/25 12:33:22;;;;;;;28.70;26.73;;;;;;;;;;5096152;28;20278;-74
2022/01/25 12:35:50;;;;;;;30.37;27.67;;;;;;;;;;5095800;28;20243;-74
2022/01/25 12:38:18;;;;;;;28.20;26.03;;;;;;;;;;5096051;28;20292;-74
2022/01/25 12:41:06;;;;;;;26.33;24.67;;;;;;;;;;5095707;28;20628;-74
2022/01/25 12:43:35;;;;;;;30.70;27.97;;;;;;;;;;5095631;28;20190;-74
2022/01/25 12:46:04;;;;;;;29.93;27.53;;;;;;;;;;5095904;28;20221;-74
2022/01/25 12:48:32;;;;;;;30.70;28.60;;;;;;;;;;5095806;28;20652;-74
2022/01/25 12:51:00;;;;;;;28.87;26.43;;;;;;;;;;5095415;28;20316;-74
2022/01/25 12:53:28;;;;;;;33.43;29.97;;;;;;;;;;5095946;28;20272;-74
2022/01/25 12:55:57;;;;;;;29.10;27.07;;;;;;;;;;5095430;28;20707;-74
2022/01/25 12:58:24;;;;;;;26.27;24.57;;;;;;;;;;5095115;28;20285;-75
2022/01/25 13:00:53;;;;;;;30.30;27.63;;;;;;;;;;5095303;28;20198;-75
2022/01/25 13:03:22;;;;;;;33.23;29.97;;;;;;;;;;5095251;28;20237;-74
2022/01/25 13:05:50;;;;;;;30.17;27.43;;;;;;;;;;5095778;28;20190;-74
2022/01/25 13:08:22;;;;;;;32.50;29.73;;;;;;;;;;5095492;28;20236;-74
2022/01/25 13:10:50;;;;;;;26.93;25.23;;;;;;;;;;5095344;28;20325;-74
2022/01/25 13:13:23;;;;;;;29.57;27.67;;;;;;;;;;5095080;28;20679;-74
2022/01/25 13:15:56;;;;;;;29.70;27.60;;;;;;;;;;5095368;28;20272;-74
2022/01/25 13:18:27;;;;;;;25.80;24.20;;;;;;;;;;5095018;28;20273;-74
2022/01/25 13:21:03;;;;;;;26.43;24.63;;;;;;;;;;5095260;28;20194;-74
2022/01/25 13:23:30;;;;;;;27.17;25.17;;;;;;;;;;5094936;28;20218;-74
2022/01/25 13:26:07;;;;;;;30.90;28.37;;;;;;;;;;5095125;28;20251;-74
2022/01/25 13:28:51;;;;;;;27.07;25.33;;;;;;;;;;5094892;28;20247;-74
2022/01/25 13:31:20;;;;;;;31.27;28.77;;;;;;;;;;5094739;28;20213;-74
2022/01/25 13:33:48;;;;;;;27.90;25.93;;;;;;;;;;5095264;28;20792;-74
2022/01/25 13:36:16;;;;;;;27.23;25.33;;;;;;;;;;5094642;28;20198;-74
2022/01/25 13:38:43;;;;;;;26.50;24.77;;;;;;;;;;5095456;28;20198;-74
2022/01/25 13:41:18;;;;;;;24.20;22.70;;;;;;;;;;5094543;28;20422;-74
2022/01/25 13:46:31;;;;;;;25.63;24.13;;;;;;;;;;5095032;28;20185;-74
2022/01/25 13:49:00;;;;;;;26.50;23.90;;;;;;;;;;5094744;28;20198;-74
2022/01/25 13:51:28;;;;;;;25.00;23.40;;;;;;;;;;5094563;28;20279;-74
2022/01/25 13:53:57;;;;;;;27.77;25.40;;;;;;;;;;5094674;28;20202;-74
2022/01/25 13:56:24;;;;;;;24.83;23.43;;;;;;;;;;5094273;28;20220;-74
2022/01/25 13:58:52;;;;;;;24.43;23.03;;;;;;;;;;5093972;28;20230;-74
2022/01/25 14:01:20;;;;;;;24.33;22.93;;;;;;;;;;5094457;28;20263;-74
2022/01/25 14:03:53;;;;;;;27.03;25.03;;;;;;;;;;5094090;28;20726;-74
2022/01/25 14:06:22;;;;;;;25.90;24.27;;;;;;;;;;5094424;28;20190;-74
2022/01/25 14:08:49;;;;;;;26.90;25.10;;;;;;;;;;5094255;28;20288;-74
2022/01/25 14:11:25;;;;;;;30.03;27.77;;;;;;;;;;5094183;28;20264;-74
2022/01/25 14:24:52;;;;;;;28.13;26.17;;;;;;;;;;5059187;28;20204;-73
2022/01/25 14:27:19;;;;;;;25.80;24.20;;;;;;;;;;5093905;28;20772;-73
2022/01/25 14:29:46;;;;;;;25.83;23.57;;;;;;;;;;5093930;28;20221;-73
2022/01/25 14:32:13;;;;;;;24.33;22.93;;;;;;;;;;5093759;28;20290;-73
2022/01/25 14:34:39;;;;;;;28.80;26.90;;;;;;;;;;5093546;28;20198;-73
2022/01/25 14:37:13;;;;;;;26.07;24.30;;;;;;;;;;5093450;28;20190;-73
2022/01/25 14:39:43;;;;;;;28.30;25.93;;;;;;;;;;5093806;28;20269;-73
2022/01/25 14:42:10;;;;;;;25.97;24.03;;;;;;;;;;5093652;28;20220;-72
2022/01/25 14:44:41;;;;;;;25.67;24.17;;;;;;;;;;5093379;28;20216;-72
2022/01/25 14:47:12;;;;;;;28.43;26.47;;;;;;;;;;5093878;28;20189;-72
2022/01/25 14:49:45;;;;;;;25.30;23.80;;;;;;;;;;5093345;28;20193;-72
2022/01/25 14:52:13;;;;;;;25.77;24.23;;;;;;;;;;5093137;28;20300;-72
2022/01/25 14:54:41;;;;;;;24.27;22.87;;;;;;;;;;5093762;28;20244;-72
2022/01/25 14:57:10;;;;;;;26.20;24.37;;;;;;;;;;5093174;28;20736;-72
2022/01/25 14:59:38;;;;;;;25.77;23.73;;;;;;;;;;5092848;28;20276;-72
2022/01/25 15:02:06;;;;;;;26.90;25.07;;;;;;;;;;5093043;28;20280;-72
2022/01/25 15:04:37;;;;;;;23.83;22.43;;;;;;;;;;5092961;28;20282;-72
2022/01/25 15:07:04;;;;;;;26.23;23.73;;;;;;;;;;5092983;28;20640;-72
2022/01/25 15:09:33;;;;;;;25.67;24.10;;;;;;;;;;5093203;28;20281;-71
2022/01/25 15:12:00;;;;;;;23.40;22.00;;;;;;;;;;5093115;28;20638;-71
2022/01/25 15:14:36;;;;;;;23.63;21.87;;;;;;;;;;5092830;28;20243;-71
2022/01/25 15:17:03;;;;;;;21.57;20.37;;;;;;;;;;5093111;28;20189;-71
2022/01/25 15:19:30;;;;;;;25.27;23.73;;;;;;;;;;5092955;28;20285;-71
2022/01/25 15:21:56;;;;;;;24.33;22.73;;;;;;;;;;5092988;28;20618;-72
2022/01/25 15:24:28;;;;;;;26.10;24.30;;;;;;;;;;5092914;28;20307;-71
2022/01/25 15:27:01;;;;;;;24.90;23.13;;;;;;;;;;5092960;28;20182;-71
2022/01/25 15:29:28;;;;;;;22.60;21.30;;;;;;;;;;5092895;28;20200;-72
2022/01/25 15:31:55;;;;;;;21.20;20.00;;;;;;;;;;5092483;28;20661;-71
2022/01/25 15:34:22;;;;;;;20.87;19.67;;;;;;;;;;5092747;28;20572;-71
2022/01/25 15:36:49;;;;;;;23.67;22.17;;;;;;;;;;5092826;28;20194;-71
2022/01/25 15:39:16;;;;;;;21.23;20.03;;;;;;;;;;5092742;28;20232;-71
2022/01/25 15:41:44;;;;;;;22.07;20.87;;;;;;;;;;5092385;28;20193;-71
2022/01/25 15:44:14;;;;;;;20.80;19.70;;;;;;;;;;5092848;28;20296;-72
2022/01/25 15:46:59;;;;;;;22.53;21.20;;;;;;;;;;5092339;28;20241;-72
2022/01/25 15:49:25;;;;;;;20.70;19.60;;;;;;;;;;5092334;28;20190;-71
2022/01/25 15:51:52;;;;;;;22.13;20.73;;;;;;;;;;5092467;28;20257;-72